Time;durP1;ratioP1;P1;durP2;ratioP2;P2;SDS_P1;SDS_P2;PMS_P1;PMS_P2;Temp;Humidity;BMP_temperature;BMP_pressure;BME280_temperature;BME280_humidity;BME280_pressure;Samples;Min_cycle;Max_cycle;Signal;HPM_P1;HPM_P2
2023/03/23 00:01:14;;;;;;;5.22;3.67;;;;;;;;;;4832606;29;20057;-91
2023/03/23 00:03:41;;;;;;;8.10;3.75;;;;;;;;;;4853371;23;20042;-92
2023/03/23 00:09:47;;;;;;;8.60;4.15;;;;;;;;;;4863750;29;20132;-91
2023/03/23 00:12:32;;;;;;;10.45;3.70;;;;;;;;;;4848828;29;20054;-91
2023/03/23 00:15:16;;;;;;;5.57;4.68;;;;;;;;;;4863610;29;20048;-92
2023/03/23 00:18:05;;;;;;;7.57;4.37;;;;;;;;;;4863060;29;20039;-92
2023/03/23 00:20:54;;;;;;;4.65;3.97;;;;;;;;;;4850228;29;20092;-92
2023/03/23 00:23:23;;;;;;;5.28;3.55;;;;;;;;;;4845876;29;20085;-89
2023/03/23 00:26:00;;;;;;;5.28;3.60;;;;;;;;;;4876502;29;20105;-90
2023/03/23 00:28:27;;;;;;;3.88;3.47;;;;;;;;;;4845538;29;20049;-89
2023/03/23 00:31:06;;;;;;;4.45;3.83;;;;;;;;;;4876990;29;20128;-91
2023/03/23 00:33:37;;;;;;;4.82;4.40;;;;;;;;;;4846541;29;20098;-91
2023/03/23 00:36:14;;;;;;;6.28;5.68;;;;;;;;;;4844890;29;20056;-94
2023/03/23 00:38:44;;;;;;;6.95;5.97;;;;;;;;;;4842826;29;20053;-92
2023/03/23 00:41:28;;;;;;;10.30;6.97;;;;;;;;;;4843760;29;20050;-95
2023/03/23 00:44:01;;;;;;;10.85;8.32;;;;;;;;;;4839958;29;20112;-93
2023/03/23 00:46:27;;;;;;;16.73;8.88;;;;;;;;;;4838611;29;20053;-95
2023/03/23 00:48:54;;;;;;;11.25;9.50;;;;;;;;;;4837952;29;20125;-95
2023/03/23 00:51:21;;;;;;;15.50;9.30;;;;;;;;;;4838705;29;20506;-95
2023/03/23 00:53:47;;;;;;;13.30;9.45;;;;;;;;;;4841631;29;20368;-92
2023/03/23 00:56:13;;;;;;;11.82;9.52;;;;;;;;;;4841960;29;20451;-92
2023/03/23 00:58:42;;;;;;;14.57;11.40;;;;;;;;;;4841949;29;20417;-93
2023/03/23 01:01:09;;;;;;;12.88;10.45;;;;;;;;;;4830028;29;20086;-94
2023/03/23 01:03:36;;;;;;;13.60;9.15;;;;;;;;;;4831575;29;20128;-92
2023/03/23 01:06:12;;;;;;;13.82;9.27;;;;;;;;;;4831000;29;20045;-91
2023/03/23 01:08:44;;;;;;;16.02;7.85;;;;;;;;;;4831793;29;20411;-91
2023/03/23 01:11:13;;;;;;;7.93;6.32;;;;;;;;;;4831000;29;20045;-94
2023/03/23 01:13:41;;;;;;;7.90;5.85;;;;;;;;;;4830853;29;20050;-92
2023/03/23 01:16:07;;;;;;;8.55;4.68;;;;;;;;;;4831320;29;20407;-93
2023/03/23 01:18:33;;;;;;;6.63;4.70;;;;;;;;;;4831040;29;20041;-92
2023/03/23 01:21:04;;;;;;;4.90;3.70;;;;;;;;;;4815821;29;20385;-92
2023/03/23 01:23:30;;;;;;;7.38;4.22;;;;;;;;;;4846256;29;20052;-94
2023/03/23 01:25:58;;;;;;;5.43;4.00;;;;;;;;;;4831116;29;20061;-94
2023/03/23 01:28:24;;;;;;;5.85;3.70;;;;;;;;;;4831064;29;20084;-93
2023/03/23 01:30:50;;;;;;;4.13;3.72;;;;;;;;;;4815920;29;20467;-92
2023/03/23 01:33:19;;;;;;;9.85;4.40;;;;;;;;;;4830124;29;20042;-92
2023/03/23 01:35:45;;;;;;;8.20;4.30;;;;;;;;;;4830582;29;20049;-92
2023/03/23 01:38:11;;;;;;;5.20;4.22;;;;;;;;;;4830515;29;20563;-93
2023/03/23 01:40:37;;;;;;;5.95;4.63;;;;;;;;;;4831011;29;20056;-95
2023/03/23 01:43:08;;;;;;;10.25;5.65;;;;;;;;;;4831579;29;20085;-94
2023/03/23 01:45:35;;;;;;;8.45;6.15;;;;;;;;;;4830544;29;20061;-93
2023/03/23 01:48:03;;;;;;;13.05;6.72;;;;;;;;;;4830866;29;20057;-94
2023/03/23 01:50:35;;;;;;;9.82;7.03;;;;;;;;;;4830920;29;20586;-95
2023/03/23 01:53:02;;;;;;;13.07;7.47;;;;;;;;;;4831850;29;20057;-96
2023/03/23 01:55:28;;;;;;;13.48;7.45;;;;;;;;;;4831002;29;20491;-93
2023/03/23 01:57:57;;;;;;;9.40;6.63;;;;;;;;;;4830837;29;20046;-95
2023/03/23 02:00:24;;;;;;;7.30;6.22;;;;;;;;;;4831558;29;20094;-95
2023/03/23 02:02:52;;;;;;;10.50;6.10;;;;;;;;;;4815575;29;20415;-96
2023/03/23 02:05:25;;;;;;;14.65;7.13;;;;;;;;;;4830837;29;20092;-95
2023/03/23 02:07:51;;;;;;;10.50;6.95;;;;;;;;;;4831214;29;20517;-96
2023/03/23 02:10:18;;;;;;;16.95;6.78;;;;;;;;;;4831468;29;20050;-95
2023/03/23 02:12:44;;;;;;;12.85;6.53;;;;;;;;;;4831710;29;20057;-96
2023/03/23 02:15:10;;;;;;;8.68;6.40;;;;;;;;;;4830637;29;20089;-94
2023/03/23 02:17:49;;;;;;;10.95;6.03;;;;;;;;;;4831158;29;20109;-94
2023/03/23 02:20:24;;;;;;;10.95;6.53;;;;;;;;;;4845363;29;20411;-95
2023/03/23 02:22:57;;;;;;;13.90;6.05;;;;;;;;;;4830312;29;20132;-96
2023/03/23 02:25:41;;;;;;;9.27;5.18;;;;;;;;;;4830167;29;20049;-95
2023/03/23 02:28:14;;;;;;;8.30;5.47;;;;;;;;;;4830211;29;20136;-95
2023/03/23 02:30:46;;;;;;;22.95;6.18;;;;;;;;;;4830197;29;20065;-94
2023/03/23 02:33:30;;;;;;;11.80;5.15;;;;;;;;;;4829870;29;20054;-93
2023/03/23 02:36:16;;;;;;;9.65;5.22;;;;;;;;;;4830388;29;20053;-96
2023/03/23 02:38:50;;;;;;;9.23;5.55;;;;;;;;;;4845505;29;20072;-94
2023/03/23 02:41:18;;;;;;;9.32;5.20;;;;;;;;;;4830667;29;20045;-96
2023/03/23 02:43:45;;;;;;;10.52;5.53;;;;;;;;;;4831397;29;20117;-95
2023/03/23 02:46:15;;;;;;;9.40;5.75;;;;;;;;;;4815740;29;20078;-95
2023/03/23 02:48:42;;;;;;;8.32;5.45;;;;;;;;;;4831504;29;20407;-95
2023/03/23 02:51:08;;;;;;;9.43;4.90;;;;;;;;;;4831286;29;20069;-95
2023/03/23 02:53:36;;;;;;;13.63;5.38;;;;;;;;;;4831232;29;20056;-95
2023/03/23 02:56:04;;;;;;;7.03;4.53;;;;;;;;;;4830715;29;20192;-96
2023/03/23 02:58:31;;;;;;;7.50;5.13;;;;;;;;;;4830403;29;20490;-96
2023/03/23 03:00:58;;;;;;;6.55;4.43;;;;;;;;;;4830368;29;20542;-96
2023/03/23 03:03:27;;;;;;;11.93;5.20;;;;;;;;;;4830284;29;20499;-95
2023/03/23 03:06:21;;;;;;;8.43;4.43;;;;;;;;;;4829829;29;20057;-95
2023/03/23 03:08:47;;;;;;;5.78;4.60;;;;;;;;;;4830416;29;20440;-94
2023/03/23 03:11:14;;;;;;;8.98;4.78;;;;;;;;;;4829984;29;20081;-94
2023/03/23 03:13:43;;;;;;;8.40;4.60;;;;;;;;;;4829890;29;20527;-94
2023/03/23 03:16:45;;;;;;;7.53;4.63;;;11.10;99.90;;;;;;4845070;29;20073;-91
2023/03/23 03:19:25;;;;;;;11.90;4.82;;;;;;;;;;4829527;29;20136;-93
2023/03/23 03:21:52;;;;;;;7.75;4.47;;;;;;;;;;4829465;29;20041;-94
2023/03/23 03:24:19;;;;;;;6.28;4.63;;;;;;;;;;4830285;29;20076;-94
2023/03/23 03:26:47;;;;;;;12.75;4.35;;;;;;;;;;4832731;29;20438;-96
2023/03/23 03:29:17;;;;;;;9.73;4.65;;;;;;;;;;4847648;29;20166;-92
2023/03/23 03:31:45;;;;;;;7.10;4.38;;;;;;;;;;4847401;29;20053;-92
2023/03/23 03:34:17;;;;;;;6.68;4.35;;;;;;;;;;4847615;29;20060;-92
2023/03/23 03:36:45;;;;;;;11.60;4.53;;;;;;;;;;4833121;29;20057;-93
2023/03/23 03:39:12;;;;;;;10.35;4.80;;;;;;;;;;4832288;29;20133;-91
2023/03/23 03:41:39;;;;;;;10.35;4.20;;;;;;;;;;4832044;29;20045;-91
2023/03/23 03:44:06;;;;;;;10.13;4.78;;;;;;;;;;4817749;29;20062;-93
2023/03/23 03:46:33;;;;;;;9.10;4.10;;;;;;;;;;4832865;29;20134;-93
2023/03/23 03:48:59;;;;;;;11.43;4.72;;;;;;;;;;4832499;29;20090;-94
2023/03/23 03:51:26;;;;;;;8.65;4.30;;;;;;;;;;4817023;29;20056;-92
2023/03/23 03:53:52;;;;;;;9.80;4.07;;;;;;;;;;4847090;29;20045;-93
2023/03/23 03:56:19;;;;;;;4.80;3.40;;;;;;;;;;4831674;29;20529;-96
2023/03/23 03:58:48;;;;;;;7.78;4.30;;;;;;;;;;4832111;29;20091;-96
2023/03/23 04:01:14;;;;;;;5.15;3.70;;;;;;;;;;4831932;29;20133;-92
2023/03/23 04:03:41;;;;;;;5.70;4.30;;;;;;;;;;4831314;29;20085;-91
2023/03/23 04:06:08;;;;;;;4.65;3.72;;;;;;;;;;4831265;29;20058;-96
2023/03/23 04:08:35;;;;;;;7.78;4.65;;;;;;;;;;4832188;29;20132;-91
2023/03/23 04:11:02;;;;;;;10.13;4.35;;;;;;;;;;4816654;29;20053;-93
2023/03/23 04:13:28;;;;;;;6.53;3.40;;;;;;;;;;4832016;29;20120;-91
2023/03/23 04:15:54;;;;;;;5.03;2.65;;;;;;;;;;4832075;29;20060;-93
2023/03/23 04:18:24;;;;;;;4.82;2.85;;;;;;;;;;4832478;29;20084;-95
2023/03/23 04:20:51;;;;;;;5.82;2.97;;;;;;;;;;4832051;29;20056;-95
2023/03/23 04:23:24;;;;;;;4.25;2.33;;;;;;;;;;4832198;29;20045;-95
2023/03/23 04:25:52;;;;;;;6.00;2.55;;;;;;;;;;4832074;29;20057;-95
2023/03/23 04:28:23;;;;;;;6.53;2.65;;;;;;;;;;4847873;29;20046;-96
2023/03/23 04:30:52;;;;;;;4.32;2.90;;;;;;;;;;4829814;29;20046;-95
2023/03/23 04:33:19;;;;;;;7.05;2.08;;;;;;;;;;4832156;29;20049;-95
2023/03/23 04:35:47;;;;;;;4.95;2.58;;;;;;;;;;4831515;29;20086;-95
2023/03/23 04:38:15;;;;;;;5.40;2.50;;;;;;;;;;4833157;29;20053;-96
2023/03/23 04:40:41;;;;;;;4.75;2.58;;;;;;;;;;4831983;29;20052;-92
2023/03/23 04:43:07;;;;;;;5.32;2.10;;;;;;;;;;4832474;29;20054;-92
2023/03/23 04:45:37;;;;;;;5.57;2.00;;;;;;;;;;4816720;29;20046;-92
2023/03/23 04:48:04;;;;;;;2.88;2.08;;;;;;;;;;4831383;29;20056;-92
2023/03/23 04:50:32;;;;;;;4.63;2.03;;;;;;;;;;4831732;29;20128;-93
2023/03/23 04:53:04;;;;;;;5.18;2.47;;;;;;;;;;4846810;29;20054;-92
2023/03/23 04:55:31;;;;;;;3.40;2.00;;;;;;;;;;4831883;29;20049;-93
2023/03/23 04:58:00;;;;;;;5.95;2.22;;;;;;;;;;4831172;29;20053;-93
2023/03/23 05:00:29;;;;;;;5.25;2.83;;;;;;;;;;4831117;29;20041;-93
2023/03/23 05:02:55;;;;;;;6.30;2.50;;;;;;;;;;4816681;29;20057;-93
2023/03/23 05:05:22;;;;;;;4.90;2.42;;;;;;;;;;4831030;29;20066;-93
2023/03/23 05:07:49;;;;;;;8.30;2.35;;;;;;;;;;4831069;29;20553;-93
2023/03/23 05:10:16;;;;;;;3.67;1.92;;;;;;;;;;4831133;29;20045;-93
2023/03/23 05:12:45;;;;;;;8.30;2.22;;;;;;;;;;4831028;29;20053;-92
2023/03/23 05:15:12;;;;;;;4.47;2.40;;;;;;;;;;4831329;29;20051;-92
2023/03/23 05:17:38;;;;;;;10.43;2.83;;;;;;;;;;4831123;29;20142;-93
2023/03/23 05:20:10;;;;;;;8.55;2.30;;;;;;;;;;4831391;29;20053;-92
2023/03/23 05:22:36;;;;;;;5.43;3.30;;;;;;;;;;4846142;29;20057;-93
2023/03/23 05:25:03;;;;;;;8.70;2.30;;;;;;;;;;4830733;29;20101;-92
2023/03/23 05:27:30;;;;;;;14.18;3.42;;;;;;;;;;4831166;29;20140;-92
2023/03/23 05:30:00;;;;;;;9.95;3.15;;;;;;;;;;4830554;29;20561;-92
2023/03/23 05:32:28;;;;;;;8.85;3.53;;;;;;;;;;4830613;29;20097;-93
2023/03/23 05:34:56;;;;;;;12.77;4.18;;;;;;;;;;4831087;29;20049;-94
2023/03/23 05:37:22;;;;;;;13.40;3.55;;;;;;;;;;4830599;29;20057;-93
2023/03/23 05:39:48;;;;;;;12.20;3.05;;;;;;;;;;4831156;29;20050;-93
2023/03/23 05:42:15;;;;;;;15.23;3.35;;;;;;;;;;4830316;29;20108;-93
2023/03/23 05:44:42;;;;;;;11.57;3.33;;;;;;;;;;4830167;29;20050;-92
2023/03/23 05:47:10;;;;;;;16.52;4.28;;;;;;;;;;4830795;29;20049;-93
2023/03/23 05:49:37;;;;;;;14.50;3.65;;;;;;;;;;4830248;29;20056;-91
2023/03/23 05:52:04;;;;;;;13.23;4.70;;;;;;;;;;4830448;29;20053;-92
2023/03/23 06:55:36;;;;;;;7.78;1.80;;;;;;;;;;4880339;29;20160;-90
2023/03/23 06:58:03;;;;;;;12.98;2.22;;;;;;;;;;4847582;29;20139;-90
2023/03/23 07:00:29;;;;;;;10.02;2.30;;;;;;;;;;4834974;29;20045;-90
2023/03/23 07:02:55;;;;;;;4.95;1.75;;;;;;;;;;4850673;29;20049;-90
2023/03/23 07:05:21;;;;;;;9.50;2.42;;;;;;;;;;4850931;29;20053;-91
2023/03/23 07:07:47;;;;;;;6.35;3.42;;;;;;;;;;4866020;29;20050;-91
2023/03/23 07:10:13;;;;;;;11.50;3.20;;;;;;;;;;4850589;29;20049;-90
2023/03/23 07:12:43;;;;;;;14.40;3.03;;;;;;;;;;4866278;29;20438;-90
2023/03/23 07:15:10;;;;;;;15.80;3.88;;;;;;;;;;4850657;29;20402;-90
2023/03/23 07:17:37;;;;;;;11.77;4.15;;;;;;;;;;4850716;29;20052;-91
2023/03/23 07:20:03;;;;;;;16.60;3.45;;;;;;;;;;4865537;29;20049;-90
2023/03/23 07:22:29;;;;;;;14.80;3.60;;;;;;;;;;4850474;29;20091;-91
2023/03/23 07:24:56;;;;;;;15.18;3.63;;;;;;;;;;4850264;29;20045;-90
2023/03/23 07:27:22;;;;;;;19.48;4.78;;;;;;;;;;4835367;29;20410;-90
2023/03/23 07:29:48;;;;;;;14.07;3.70;;;;;;;;;;4850142;29;20041;-90
2023/03/23 07:32:14;;;;;;;23.05;4.32;;;;;;;;;;4850226;29;20045;-90
2023/03/23 07:34:41;;;;;;;22.23;4.82;;;;;;;;;;4834994;29;20045;-89
2023/03/23 07:37:07;;;;;;;13.30;5.43;;;;;;;;;;4850198;29;20388;-90
2023/03/23 07:39:33;;;;;;;17.23;5.00;;;;;;;;;;4866104;29;20530;-90
2023/03/23 07:42:00;;;;;;;19.70;5.22;;;;;;;;;;4850581;29;20087;-90
2023/03/23 07:44:26;;;;;;;24.02;5.18;;;;;;;;;;4850057;29;20089;-90
2023/03/23 07:46:52;;;;;;;27.15;4.75;;;;;;;;;;4865268;29;20084;-89
2023/03/23 07:49:18;;;;;;;21.33;5.03;;;;;;;;;;4866067;29;20052;-90
2023/03/23 07:51:45;;;;;;;20.92;5.70;;;;;;;;;;4864978;29;20525;-90
2023/03/23 07:54:12;;;;;;;20.48;6.15;;;;;;;;;;4850781;29;20474;-90
2023/03/23 07:56:39;;;;;;;22.40;6.50;;;;;;;;;;4850054;29;20041;-90
2023/03/23 07:59:06;;;;;;;15.98;4.30;;;;;;;;;;4850045;29;20140;-89
2023/03/23 08:01:33;;;;;;;22.45;5.15;;;;;;;;;;4850081;29;20072;-90
2023/03/23 08:03:59;;;;;;;27.17;7.57;;;;;;;;;;4864863;29;20489;-89
2023/03/23 08:06:25;;;;;;;25.45;6.78;;;;;;;;;;4864806;29;20084;-89
2023/03/23 08:08:52;;;;;;;28.23;6.43;;;;;;;;;;4849855;29;20056;-90
2023/03/23 08:11:18;;;;;;;20.02;5.18;;;;;;;;;;4849223;29;20048;-89
2023/03/23 08:13:45;;;;;;;19.63;5.28;;;;;;;;;;4864744;29;20096;-90
2023/03/23 08:16:11;;;;;;;24.33;5.00;;;;;;;;;;4864988;29;20068;-89
2023/03/23 08:18:39;;;;;;;23.45;5.65;;;;;;;;;;4849755;29;20626;-88
2023/03/23 08:21:06;;;;;;;25.23;6.03;;;;;;;;;;4865109;29;20435;-89
2023/03/23 08:23:32;;;;;;;25.85;5.18;;;;;;;;;;4865142;29;20049;-89
2023/03/23 08:25:59;;;;;;;27.13;4.63;;;;;;;;;;4849349;29;20045;-90
2023/03/23 08:28:25;;;;;;;13.65;5.18;;;;;;;;;;4849171;29;20045;-89
2023/03/23 08:30:51;;;;;;;29.90;5.88;;;;;;;;;;4848947;29;20052;-89
2023/03/23 08:33:18;;;;;;;15.00;4.65;;;;;;;;;;4849075;29;20109;-89
2023/03/23 08:35:54;;;;;;;22.20;6.03;;;;;;;;;;4835388;29;20084;-89
2023/03/23 08:38:21;;;;;;;24.55;5.65;;;;;;;;;;4849514;29;20152;-89
2023/03/23 08:40:48;;;;;;;14.52;4.60;;;;;;;;;;4849206;29;20041;-89
2023/03/23 08:43:15;;;;;;;20.88;5.32;;;;;;;;;;4834004;29;20045;-90
2023/03/23 08:45:41;;;;;;;25.40;6.10;;;;;;;;;;4849505;29;20045;-90
2023/03/23 08:48:07;;;;;;;21.77;5.63;;;;;;;;;;4848671;29;20084;-90
2023/03/23 08:50:34;;;;;;;22.75;5.28;;;;;;;;;;4848748;29;20053;-89
2023/03/23 08:53:00;;;;;;;31.33;5.50;;;;;;;;;;4848560;29;20063;-89
2023/03/23 08:55:29;;;;;;;16.48;4.75;;;;;;;;;;4849092;29;20049;-89
2023/03/23 08:57:56;;;;;;;12.63;4.97;;;;;;;;;;4864716;29;20044;-89
2023/03/23 09:00:24;;;;;;;15.15;4.25;;;;;;;;;;4848856;29;20097;-90
2023/03/23 09:02:51;;;;;;;19.98;6.07;;;;;;;;;;4848441;29;20566;-89
2023/03/23 09:05:18;;;;;;;17.15;5.80;;;;;;;;;;4848587;29;20049;-90
2023/03/23 09:07:46;;;;;;;23.15;7.43;;;;;;;;;;4848350;29;20049;-90
2023/03/23 09:10:13;;;;;;;26.52;5.10;;;;;;;;;;4864374;29;20080;-88
2023/03/23 09:12:39;;;;;;;21.42;5.20;;;;;;;;;;4848343;29;20045;-88
2023/03/23 09:15:09;;;;;;;32.03;6.55;;;;;;;;;;4848227;29;20448;-89
2023/03/23 09:17:38;;;;;;;14.80;4.63;;;;;;;;;;4848805;29;20149;-89
2023/03/23 09:20:10;;;;;;;18.33;4.68;;;;;;;;;;4848546;29;20056;-89
2023/03/23 09:22:38;;;;;;;13.85;4.15;;;;;;;;;;4863144;29;20524;-88
2023/03/23 09:25:04;;;;;;;17.77;5.28;;;;;;;;;;4848307;29;20469;-88
2023/03/23 09:27:31;;;;;;;14.73;5.00;;;;;;;;;;4863579;29;20053;-89
2023/03/23 09:29:57;;;;;;;25.73;6.20;;;;;;;;;;4864220;29;20049;-89
2023/03/23 09:32:23;;;;;;;16.23;4.65;;;;;;;;;;4863605;29;20053;-89
2023/03/23 09:34:51;;;;;;;18.50;4.53;;;;;;;;;;4833094;29;20053;-88
2023/03/23 09:37:17;;;;;;;18.98;5.15;;;;;;;;;;4863444;29;20057;-88
2023/03/23 09:39:43;;;;;;;26.25;5.90;;;;;;;;;;4848892;29;20045;-88
2023/03/23 09:42:22;;;;;;;19.80;5.50;;;;;;;;;;4851036;29;20060;-89
2023/03/23 09:44:58;;;;;;;22.60;5.38;;;;;;;;;;4848455;29;20467;-89
2023/03/23 09:47:42;;;;;;;18.40;4.88;;;;;;;;;;4863103;29;20135;-89
2023/03/23 09:50:09;;;;;;;19.55;5.50;;;;;;;;;;4863590;29;20045;-89
2023/03/23 09:52:41;;;;;;;20.88;5.15;;;;;;;;;;4848002;29;20087;-89
2023/03/23 09:55:11;;;;;;;13.38;4.50;;;;;;;;;;4863783;29;20061;-88
2023/03/23 09:57:52;;;;;;;30.85;5.80;;;;;;;;;;4847880;29;20498;-89
2023/03/23 10:00:26;;;;;;;16.73;4.47;;;;;;;;;;4848629;29;20478;-89
2023/03/23 10:03:05;;;;;;;22.80;4.32;;;;;;;;;;4847811;29;20513;-89
2023/03/23 10:05:36;;;;;;;17.83;4.75;;;;;;;;;;4847601;29;20407;-89
2023/03/23 10:08:09;;;;;;;20.27;5.43;;;;;;;;;;4862638;29;20055;-89
2023/03/23 10:10:43;;;;;;;20.10;5.40;;;;;;;;;;4847987;29;20056;-89
2023/03/23 10:13:30;;;;;;;22.08;4.38;;;;;;;;;;4847652;29;20044;-91
2023/03/23 10:15:57;;;;;;;20.60;5.70;;;;;;;;;;4847283;29;20056;-89
2023/03/23 10:18:43;;;;;;;20.90;5.05;;;;;;;;;;4847832;29;20049;-91
2023/03/23 10:21:16;;;;;;;16.77;5.38;;;;;;;;;;4847644;29;20049;-92
2023/03/23 10:23:46;;;;;;;18.95;5.15;;;;;;;;;;4847963;29;20048;-91
2023/03/23 10:26:15;;;;;;;18.33;4.40;;;;;;;;;;4848248;29;20057;-91
2023/03/23 10:28:44;;;;;;;16.40;4.72;;;;;;;;;;4847661;29;20524;-91
2023/03/23 10:31:15;;;;;;;12.13;4.22;;;;;;;;;;4848389;29;20045;-91
2023/03/23 10:33:44;;;;;;;24.10;5.28;;;;;;;;;;4848174;29;20094;-91
2023/03/23 10:36:10;;;;;;;14.23;4.18;;;;;;;;;;4851944;29;20394;-92
2023/03/23 10:38:43;;;;;;;17.58;5.13;;;;;;;;;;4851700;29;20154;-92
2023/03/23 10:41:13;;;;;;;20.10;5.75;;;;;;;;;;4851861;29;20394;-92
2023/03/23 10:43:41;;;;;;;23.27;4.78;;;;;;;;;;4851052;29;20049;-92
2023/03/23 10:46:13;;;;;;;9.07;3.55;;;;;;;;;;4851570;29;20041;-91
2023/03/23 10:48:43;;;;;;;20.52;3.55;;;;;;;;;;4851240;29;20481;-92
2023/03/23 10:51:13;;;;;;;13.90;4.75;;;;;;;;;;4851538;29;20049;-92
2023/03/23 10:53:43;;;;;;;12.85;2.88;;;;;;;;;;4851119;29;20063;-92
2023/03/23 10:56:45;;;;;;;18.60;6.20;;;;;;;;;;4851322;29;20049;-91
2023/03/23 10:59:32;;;;;;;18.52;4.60;;;;;;;;;;4759954;30;20189;-92
2023/03/23 11:02:02;;;;;;;12.82;3.70;;;;;;;;;;4861107;29;20113;-91
2023/03/23 11:04:28;;;;;;;27.27;4.60;;;;;;;;;;4851207;29;20041;-91
2023/03/23 11:06:58;;;;;;;10.35;3.40;;;;;;;;;;4850750;29;20045;-92
2023/03/23 11:09:37;;;;;;;21.40;4.10;;;;;;;;;;4851039;29;20052;-92
2023/03/23 11:12:04;;;;;;;9.68;3.53;;;;;;;;;;4850977;29;20045;-91
2023/03/23 11:14:32;;;;;;;13.30;4.15;;;;;;;;;;4851009;29;20068;-92
2023/03/23 11:17:00;;;;;;;13.40;3.17;;;;;;;;;;4851266;29;20064;-92
2023/03/23 11:19:36;;;;;;;12.40;4.07;;;;;;;;;;4851415;29;20048;-91
2023/03/23 11:22:05;;;;;;;10.43;2.90;;;;;;;;;;4866177;29;20081;-91
2023/03/23 11:24:42;;;;;;;13.73;3.47;;;;;;;;;;4866270;29;20087;-90
2023/03/23 11:27:12;;;;;;;16.67;4.07;;;;;;;;;;4850603;29;20097;-92
2023/03/23 11:29:49;;;;;;;10.75;2.95;;;;;;;;;;4850085;29;20517;-91
2023/03/23 11:32:17;;;;;;;13.57;3.58;;;;;;;;;;4850455;29;20063;-91
2023/03/23 11:34:43;;;;;;;15.63;3.47;;;;;;;;;;4850803;29;20059;-92
2023/03/23 11:37:12;;;;;;;12.48;3.53;;;;;;;;;;4850374;29;20546;-90
2023/03/23 11:39:55;;;;;;;25.27;5.03;;;;;;;;;;4850773;29;20045;-92
2023/03/23 11:42:28;;;;;;;17.55;4.28;;;;;;;;;;4849944;29;20467;-91
2023/03/23 11:44:54;;;;;;;19.20;5.38;;;;;;;;;;4849658;29;20184;-91
2023/03/23 11:47:38;;;;;;;17.23;3.10;;;;;;;;;;4865436;29;20048;-91
2023/03/23 11:50:17;;;;;;;13.55;3.53;;;;;;;;;;4849932;29;20041;-91
2023/03/23 11:52:50;;;;;;;13.32;3.40;;;;;;;;;;4849763;29;20056;-90
2023/03/23 11:55:20;;;;;;;8.80;3.30;;;;;;;;;;4849930;29;20045;-91
2023/03/23 11:57:46;;;;;;;14.52;3.22;;;;;;;;;;4850239;29;20081;-92
2023/03/23 12:00:18;;;;;;;7.38;3.15;;;;;;;;;;4849748;29;20146;-91
2023/03/23 12:03:03;;;;;;;8.68;3.00;;;;;;;;;;4849761;29;20045;-92
2023/03/23 12:05:29;;;;;;;7.18;2.53;;;;;;;;;;4850182;29;20081;-92
2023/03/23 12:07:55;;;;;;;10.27;3.33;;;;;;;;;;4865463;29;20049;-91
2023/03/23 12:10:54;;;;;;;8.80;2.67;;;;;;;;;;4850001;29;20049;-91
2023/03/23 12:13:26;;;;;;;10.10;2.47;;;;;;;;;;4801038;29;20068;-92
2023/03/23 12:16:11;;;;;;;15.32;3.00;;;;;;;;;;4849865;29;20394;-92
2023/03/23 12:18:46;;;;;;;8.50;2.67;;;;;;;;;;4850030;29;20049;-93
2023/03/23 12:21:16;;;;;;;10.40;3.00;;;;;;;;;;4850628;29;20109;-93
2023/03/23 12:23:45;;;;;;;10.23;2.50;;;;;;;;;;4849988;29;20041;-92
2023/03/23 12:26:13;;;;;;;13.23;3.47;;;;;;;;;;4850329;29;20049;-92
2023/03/23 12:28:42;;;;;;;10.27;3.72;;;;;;;;;;4849411;29;20056;-91
2023/03/23 12:31:15;;;;;;;14.95;3.83;;;;;;;;;;4864710;29;20041;-92
2023/03/23 12:33:46;;;;;;;10.68;3.13;;;;;;;;;;4849444;29;20104;-92
2023/03/23 12:36:25;;;;;;;10.35;3.65;;;;;;;;;;4849701;29;20135;-92
2023/03/23 12:39:04;;;;;;;17.23;3.30;;;;;;;;;;4848592;29;20517;-92
2023/03/23 12:41:35;;;;;;;15.40;3.65;;;;;;;;;;4849319;29;20049;-92
2023/03/23 12:44:09;;;;;;;11.38;2.28;;;;;;;;;;4850063;29;20494;-92
2023/03/23 12:46:50;;;;;;;12.63;2.72;;;;;;;;;;4849162;29;20517;-93
2023/03/23 12:49:22;;;;;;;10.48;3.25;;;;;;;;;;4849209;29;20052;-93
2023/03/23 12:51:55;;;;;;;12.20;3.38;;;;;;;;;;4848729;29;20048;-93
2023/03/23 12:54:27;;;;;;;12.32;3.22;;;;;;;;;;4848897;29;20057;-92
2023/03/23 12:57:14;;;;;;;22.10;3.63;;;;;;;;;;4848235;29;20415;-92
2023/03/23 13:00:10;;;;;;;15.63;3.20;;;13.90;99.90;;;;;;4849238;29;20057;-92
2023/03/23 13:02:41;;;;;;;13.93;3.53;;;;;;;;;;4849272;29;20051;-92
2023/03/23 13:05:30;;;;;;;17.42;3.20;;;;;;;;;;4848950;29;20096;-93
2023/03/23 13:08:22;;;;;;;11.35;2.50;;;;;;;;;;4849343;29;20101;-93
2023/03/23 13:10:49;;;;;;;7.00;3.17;;;;;;;;;;4838983;29;20061;-93
2023/03/23 13:13:26;;;;;;;12.07;2.28;;;;;;;;;;4849295;29;20088;-92
2023/03/23 13:15:56;;;;;;;6.03;2.33;;;;;;;;;;4850059;29;20044;-93
2023/03/23 13:18:31;;;;;;;11.55;3.35;;;;;;;;;;4849597;29;20525;-93
2023/03/23 13:21:07;;;;;;;17.35;4.25;;;;;;;;;;4848969;29;20049;-93
2023/03/23 13:23:48;;;;;;;11.70;3.20;;;;;;;;;;4848469;29;20525;-91
2023/03/23 13:26:21;;;;;;;16.27;3.72;;;;;;;;;;4848621;29;20080;-92
2023/03/23 13:28:51;;;;;;;9.90;3.10;;;;;;;;;;4848706;29;20056;-92
2023/03/23 13:31:24;;;;;;;9.00;3.70;;;;;;;;;;4848724;29;20172;-93
2023/03/23 13:33:50;;;;;;;17.05;3.35;;;;;;;;;;4849125;29;20088;-92
2023/03/23 13:36:19;;;;;;;16.67;3.78;;;;;;;;;;4848687;29;20101;-92
2023/03/23 13:38:49;;;;;;;16.77;3.90;;;;;;;;;;4848529;29;20045;-93
2023/03/23 13:41:16;;;;;;;12.60;3.55;;;;;;;;;;4848859;29;20053;-93
2023/03/23 13:43:44;;;;;;;14.50;3.13;;;;;;;;;;4848890;29;20049;-93
2023/03/23 13:46:19;;;;;;;11.98;3.35;;;;;;;;;;4849068;29;20064;-90
2023/03/23 13:48:47;;;;;;;15.02;3.45;;;;;;;;;;4848487;29;20197;-93
2023/03/23 13:51:32;;;;;;;9.23;3.20;;;;;;;;;;4848610;29;20045;-93
2023/03/23 13:54:15;;;;;;;12.30;2.83;;;;;;;;;;4848617;29;20076;-92
2023/03/23 13:56:54;;;;;;;11.57;3.70;;;;;;;;;;4848377;29;20049;-94
2023/03/23 13:59:26;;;;;;;9.30;3.13;;;;;;;;;;4848949;29;20059;-92
2023/03/23 14:01:53;;;;;;;15.32;4.25;;;;;;;;;;4848227;29;20136;-91
2023/03/23 14:04:20;;;;;;;15.88;2.80;;;;;;;;;;4848973;29;20422;-92
2023/03/23 14:06:48;;;;;;;17.52;4.05;;;14.40;99.90;;;;;;4848458;29;20128;-93
2023/03/23 14:09:19;;;;;;;12.48;4.55;;;;;;;;;;4848191;29;20045;-91
2023/03/23 14:12:09;;;;;;;12.85;3.85;;;;;;;;;;4848500;29;20080;-93
2023/03/23 14:14:40;;;;;;;12.07;3.20;;;;;;;;;;4848236;29;20064;-91
2023/03/23 14:17:22;;;;;;;18.15;3.90;;;;;;;;;;4847640;29;20041;-92
2023/03/23 14:19:50;;;;;;;11.20;3.70;;;;;;;;;;4847900;29;20139;-93
2023/03/23 14:22:22;;;;;;;13.52;3.72;;;;;;;;;;4848059;29;20087;-91
2023/03/23 14:24:49;;;;;;;16.08;4.18;;;;;;;;;;4848139;29;20044;-92
2023/03/23 14:27:17;;;;;;;11.60;2.75;;;;;;;;;;4863046;29;20049;-91
2023/03/23 14:29:43;;;;;;;9.10;2.97;;;;;;;;;;4848282;29;20493;-90
2023/03/23 14:32:25;;;;;;;6.90;3.42;;;;;;;;;;4848167;29;20447;-92
2023/03/23 14:34:54;;;;;;;7.05;2.58;;;;;;;;;;4863534;29;20045;-91
2023/03/23 14:37:21;;;;;;;8.00;3.10;;;;;;;;;;4863848;29;20144;-91
2023/03/23 14:39:52;;;;;;;9.40;2.78;;;;;;;;;;4847819;29;20648;-90
2023/03/23 14:42:21;;;;;;;10.95;2.35;;;;;;;;;;4847146;29;20049;-91
2023/03/23 14:44:49;;;;;;;11.07;3.58;;;;;;;;;;4847574;29;20088;-91
2023/03/23 14:47:29;;;;;;;7.57;2.70;;;;;;;;;;4847400;29;20044;-91
2023/03/23 14:49:56;;;;;;;4.93;2.22;;;;;;;;;;4848113;29;20148;-91
2023/03/23 14:52:24;;;;;;;6.68;2.33;;;;;;;;;;4847724;29;20087;-92
2023/03/23 14:54:51;;;;;;;9.50;2.35;;;;;;;;;;4847581;29;20053;-91
2023/03/23 14:57:26;;;;;;;11.52;2.75;;;;;;;;;;4832935;29;20097;-91
2023/03/23 14:59:53;;;;;;;7.65;2.75;;;;;;;;;;4847502;29;20051;-93
2023/03/23 15:02:22;;;;;;;4.57;2.38;;;;;;;;;;4848055;29;20041;-91
2023/03/23 15:04:53;;;;;;;8.10;2.55;;;;;;;;;;4847724;29;20053;-90
2023/03/23 15:07:20;;;;;;;9.32;2.85;;;;;;;;;;4862607;29;20109;-91
2023/03/23 15:09:47;;;;;;;7.97;2.38;;;14.50;99.90;;;;;;4848008;29;20482;-91
2023/03/23 15:12:20;;;;;;;7.00;2.30;;;;;;;;;;4847676;29;20060;-92
2023/03/23 15:14:54;;;;;;;5.32;2.70;;;;;;;;;;4863162;29;20084;-91
2023/03/23 15:17:22;;;;;;;9.23;2.83;;;;;;;;;;4847698;29;20060;-91
2023/03/23 15:19:48;;;;;;;7.07;1.98;;;;;;;;;;4847570;29;20049;-92
2023/03/23 15:22:26;;;;;;;8.18;2.67;;;;;;;;;;4836279;29;20047;-92
2023/03/23 15:24:53;;;;;;;10.30;2.00;;;;;;;;;;4851367;29;20041;-92
2023/03/23 15:27:30;;;;;;;9.32;2.72;;;;;;;;;;4850945;29;20056;-93
2023/03/23 15:29:57;;;;;;;11.38;3.05;;;;;;;;;;4851477;29;20063;-92
2023/03/23 15:32:26;;;;;;;4.72;2.15;;;;;;;;;;4850639;29;20085;-92
2023/03/23 15:34:53;;;;;;;8.93;2.90;;;;;;;;;;4851856;29;20041;-92
2023/03/23 15:37:19;;;;;;;6.97;2.58;;;;;;;;;;4835629;29;20137;-91
2023/03/23 15:39:45;;;;;;;7.80;2.25;;;;;;;;;;4851015;29;20041;-91
2023/03/23 15:42:32;;;;;;;14.48;2.67;;;;;;;;;;4851376;29;20147;-92
2023/03/23 15:45:27;;;;;;;13.13;2.72;;;14.50;99.90;;;;;;4850993;29;20063;-91
2023/03/23 15:47:54;;;;;;;7.40;2.25;;;;;;;;;;4848714;29;20061;-91
2023/03/23 15:50:32;;;;;;;8.07;2.47;;;;;;;;;;4865975;29;20041;-93
2023/03/23 15:52:59;;;;;;;8.98;2.70;;;;;;;;;;4850614;29;20061;-91
2023/03/23 15:55:30;;;;;;;9.52;3.33;;;;;;;;;;4835284;29;20084;-92
2023/03/23 15:57:57;;;;;;;13.15;3.25;;;;;;;;;;4850798;29;20049;-91